Startpagina
METAR-TAF:

METAR-TAF

Vliegvelden :

Aéroport de Lille-Lesquin

Rijsel, Frankrijk

breedte: 50-34N, lengte: 003-06E, hoogte: 48 m

Actueel weer

Dit bericht is 28 minuten geleden gemaakt, om 15:30 UTC
Wind 7 kt uit het oosten, variërend tussen het oostnoordoosten en het oostzuidoosten
Temperatuur 21°C
Vochtigheid 43%
Druk 995 hPa
Zicht 10 km of meer
geen wolken onder 1500 m en geen cumulonimbus

METAR: LFQQ 231530Z AUTO 08007KT 060V120 CAVOK 21/08 Q0995 NOSIG

Tijdstip: 17:58 (15:58 UTC)

Verwachting

Dit bericht is 4 uur en het 58 minuten geleden gemaakt, om 11:00 UTC
Verwachting geldig van 23 om 12 UTC tot 24 om 18 UTC
Wind 7 kt uit het oostnoordoosten
Zicht 10 km of meer
geen wolken onder 1500 m en geen cumulonimbus
Kans 30% :
Tijdelijke
van 24 om 12 UTC tot 24 om 18 UTC
Zicht: 4000 m
Gebroken wolken op 5000 ft, Cumulonimbus.
onweer, regen

TAF: LFQQ 231100Z 2312/2418 07007KT CAVOK PROB30 TEMPO 2412/2418 4000 TSRA BKN050CB

Waarnemingen en weersverwachtingen van meer dan 4000 vliegvelden (METAR en TAF).

De beschikbare stations zijn de gele en rode punten op de kaart.

Ga met uw muis naar het station om de naam te zien.

Klik dan om waarnemingen en weersverwachtingen te zien.

kaart wijzigen: klik op de groene knoppen met een zwart kruis om in te zoomen, op de groene knop met een streepje om uit te zoomen of op de groene pijlen voor aangrenzende kaarten.


METAR-TAF: